9C0 weather

Peninsula Point Pullout Seaplane Base
Ketchikan, Alaska, United States

Public forecast

Using degrees Fahrenheit for public forecast. Weather courtesy of forecast.io.

Closest aviation weather report (METAR) to Peninsula Point Pullout Seaplane Base

Closest report is Ketchikan International Airport, 1.9 nm (3.6 km) SSE. Retrieved 2019/11/18 01:53 UTC (31 minutes ago):

PAKT 180153Z 18003KT 10SM BKN043 06/05 A2988

Closest aviation forecast (TAF) to Peninsula Point Pullout Seaplane Base

Closest forecast is Ketchikan International Airport, 1.9 nm (3.6 km) SSE. Retrieved 2019-11-18 00:24 UTC (2 hours ago):

TAF PAKT 172323Z 1800/1824 14006KT P6SM -SHRA OVC035 TEMPO 1800/1804 6SM -SHRA OVC025 FM181200 15005KT P6SM -SHRA OVC025 AMD LTD TO CLD VIS AND WIND 1806/1815